sensor_id;sensor_type;location;lat;lon;timestamp;P1;durP1;ratioP1;P2;durP2;ratioP2
38615;SDS011;24370;51.986;4.666;2023-04-01T00:00:51;41.23;;;9.93;;
38615;SDS011;24370;51.986;4.666;2023-04-01T00:03:19;39.53;;;11.40;;
38615;SDS011;24370;51.986;4.666;2023-04-01T00:05:46;46.07;;;12.40;;
38615;SDS011;24370;51.986;4.666;2023-04-01T00:08:11;47.60;;;11.60;;
38615;SDS011;24370;51.986;4.666;2023-04-01T00:10:37;68.03;;;14.37;;
38615;SDS011;24370;51.986;4.666;2023-04-01T00:13:04;56.30;;;12.60;;
38615;SDS011;24370;51.986;4.666;2023-04-01T00:15:30;84.17;;;21.40;;
38615;SDS011;24370;51.986;4.666;2023-04-01T00:17:55;82.47;;;21.27;;
38615;SDS011;24370;51.986;4.666;2023-04-01T00:20:21;75.30;;;19.87;;
38615;SDS011;24370;51.986;4.666;2023-04-01T00:22:47;53.73;;;15.20;;
38615;SDS011;24370;51.986;4.666;2023-04-01T00:25:13;52.33;;;13.93;;
38615;SDS011;24370;51.986;4.666;2023-04-01T00:27:39;59.43;;;13.97;;
38615;SDS011;24370;51.986;4.666;2023-04-01T00:30:05;35.27;;;10.93;;
38615;SDS011;24370;51.986;4.666;2023-04-01T00:32:31;37.90;;;10.03;;
38615;SDS011;24370;51.986;4.666;2023-04-01T00:34:56;39.53;;;9.87;;
38615;SDS011;24370;51.986;4.666;2023-04-01T00:37:24;34.97;;;9.47;;
38615;SDS011;24370;51.986;4.666;2023-04-01T00:39:50;34.10;;;8.63;;
38615;SDS011;24370;51.986;4.666;2023-04-01T00:42:16;27.47;;;7.40;;
38615;SDS011;24370;51.986;4.666;2023-04-01T00:44:41;35.10;;;10.47;;
38615;SDS011;24370;51.986;4.666;2023-04-01T00:47:07;39.50;;;11.00;;
38615;SDS011;24370;51.986;4.666;2023-04-01T00:49:35;36.73;;;9.60;;
38615;SDS011;24370;51.986;4.666;2023-04-01T00:52:05;44.77;;;11.83;;
38615;SDS011;24370;51.986;4.666;2023-04-01T00:54:33;30.83;;;10.13;;
38615;SDS011;24370;51.986;4.666;2023-04-01T00:57:05;42.33;;;11.73;;
38615;SDS011;24370;51.986;4.666;2023-04-01T00:59:45;33.93;;;8.87;;
38615;SDS011;24370;51.986;4.666;2023-04-01T01:02:14;36.67;;;8.67;;
38615;SDS011;24370;51.986;4.666;2023-04-01T01:04:41;48.97;;;10.67;;
38615;SDS011;24370;51.986;4.666;2023-04-01T01:12:46;38.10;;;10.77;;
38615;SDS011;24370;51.986;4.666;2023-04-01T01:23:28;51.73;;;12.93;;
38615;SDS011;24370;51.986;4.666;2023-04-01T01:29:34;35.00;;;8.97;;
38615;SDS011;24370;51.986;4.666;2023-04-01T01:31:36;36.10;;;8.70;;
38615;SDS011;24370;51.986;4.666;2023-04-01T01:37:06;31.40;;;8.60;;
38615;SDS011;24370;51.986;4.666;2023-04-01T01:39:39;40.40;;;11.00;;
38615;SDS011;24370;51.986;4.666;2023-04-01T01:42:07;28.57;;;8.20;;
38615;SDS011;24370;51.986;4.666;2023-04-01T01:44:36;25.57;;;6.27;;
38615;SDS011;24370;51.986;4.666;2023-04-01T01:47:06;17.30;;;5.37;;
38615;SDS011;24370;51.986;4.666;2023-04-01T01:49:33;23.57;;;5.90;;
38615;SDS011;24370;51.986;4.666;2023-04-01T01:52:00;21.93;;;5.93;;
38615;SDS011;24370;51.986;4.666;2023-04-01T01:54:26;26.47;;;7.67;;
38615;SDS011;24370;51.986;4.666;2023-04-01T01:56:52;28.00;;;7.20;;
38615;SDS011;24370;51.986;4.666;2023-04-01T01:59:24;16.07;;;5.33;;
38615;SDS011;24370;51.986;4.666;2023-04-01T02:01:52;21.40;;;7.97;;
38615;SDS011;24370;51.986;4.666;2023-04-01T02:04:20;26.43;;;7.87;;
38615;SDS011;24370;51.986;4.666;2023-04-01T02:06:53;25.13;;;6.63;;
38615;SDS011;24370;51.986;4.666;2023-04-01T02:09:23;19.90;;;6.53;;
38615;SDS011;24370;51.986;4.666;2023-04-01T02:11:53;21.53;;;6.93;;
38615;SDS011;24370;51.986;4.666;2023-04-01T02:14:23;23.90;;;6.70;;
38615;SDS011;24370;51.986;4.666;2023-04-01T02:17:02;24.17;;;8.07;;
38615;SDS011;24370;51.986;4.666;2023-04-01T02:19:36;20.77;;;6.83;;
38615;SDS011;24370;51.986;4.666;2023-04-01T02:22:05;20.43;;;6.33;;
38615;SDS011;24370;51.986;4.666;2023-04-01T02:24:36;21.27;;;6.32;;
38615;SDS011;24370;51.986;4.666;2023-04-01T02:27:04;17.00;;;6.70;;
38615;SDS011;24370;51.986;4.666;2023-04-01T02:29:30;21.20;;;6.40;;
38615;SDS011;24370;51.986;4.666;2023-04-01T02:31:55;22.80;;;7.47;;
38615;SDS011;24370;51.986;4.666;2023-04-01T02:34:22;29.87;;;9.03;;
38615;SDS011;24370;51.986;4.666;2023-04-01T02:36:49;28.73;;;7.57;;
38615;SDS011;24370;51.986;4.666;2023-04-01T02:39:15;26.23;;;7.97;;
38615;SDS011;24370;51.986;4.666;2023-04-01T02:41:42;25.83;;;7.53;;
38615;SDS011;24370;51.986;4.666;2023-04-01T02:44:08;19.33;;;7.27;;
38615;SDS011;24370;51.986;4.666;2023-04-01T02:46:35;26.70;;;8.97;;
38615;SDS011;24370;51.986;4.666;2023-04-01T02:49:01;22.50;;;7.30;;
38615;SDS011;24370;51.986;4.666;2023-04-01T02:51:26;15.60;;;7.10;;
38615;SDS011;24370;51.986;4.666;2023-04-01T02:53:51;18.27;;;7.23;;
38615;SDS011;24370;51.986;4.666;2023-04-01T02:56:17;24.00;;;7.63;;
38615;SDS011;24370;51.986;4.666;2023-04-01T02:58:43;22.90;;;8.53;;
38615;SDS011;24370;51.986;4.666;2023-04-01T03:01:08;23.93;;;10.20;;
38615;SDS011;24370;51.986;4.666;2023-04-01T03:03:33;33.07;;;12.53;;
38615;SDS011;24370;51.986;4.666;2023-04-01T03:06:04;33.00;;;12.77;;
38615;SDS011;24370;51.986;4.666;2023-04-01T03:08:31;34.87;;;13.27;;
38615;SDS011;24370;51.986;4.666;2023-04-01T03:10:56;32.17;;;12.63;;
38615;SDS011;24370;51.986;4.666;2023-04-01T03:13:21;47.47;;;17.07;;
38615;SDS011;24370;51.986;4.666;2023-04-01T03:15:47;42.80;;;16.77;;
38615;SDS011;24370;51.986;4.666;2023-04-01T03:18:12;39.10;;;17.47;;
38615;SDS011;24370;51.986;4.666;2023-04-01T03:20:38;39.37;;;17.77;;
38615;SDS011;24370;51.986;4.666;2023-04-01T03:23:03;41.80;;;15.33;;
38615;SDS011;24370;51.986;4.666;2023-04-01T03:25:28;45.13;;;16.63;;
38615;SDS011;24370;51.986;4.666;2023-04-01T03:27:55;41.17;;;16.57;;
38615;SDS011;24370;51.986;4.666;2023-04-01T03:30:21;38.30;;;16.97;;
38615;SDS011;24370;51.986;4.666;2023-04-01T03:32:46;40.03;;;17.50;;
38615;SDS011;24370;51.986;4.666;2023-04-01T03:35:12;38.07;;;17.37;;
38615;SDS011;24370;51.986;4.666;2023-04-01T03:37:37;40.73;;;17.23;;
38615;SDS011;24370;51.986;4.666;2023-04-01T03:40:03;41.60;;;17.70;;
38615;SDS011;24370;51.986;4.666;2023-04-01T03:42:30;35.00;;;13.97;;
38615;SDS011;24370;51.986;4.666;2023-04-01T03:44:57;37.23;;;14.40;;
38615;SDS011;24370;51.986;4.666;2023-04-01T03:47:22;32.83;;;12.33;;
38615;SDS011;24370;51.986;4.666;2023-04-01T03:49:48;27.07;;;12.03;;
38615;SDS011;24370;51.986;4.666;2023-04-01T03:52:13;33.20;;;10.53;;
38615;SDS011;24370;51.986;4.666;2023-04-01T03:54:38;33.20;;;12.30;;
38615;SDS011;24370;51.986;4.666;2023-04-01T03:57:04;27.30;;;11.77;;
38615;SDS011;24370;51.986;4.666;2023-04-01T03:59:30;28.37;;;11.33;;
38615;SDS011;24370;51.986;4.666;2023-04-01T04:01:55;32.33;;;12.87;;
38615;SDS011;24370;51.986;4.666;2023-04-01T04:04:21;29.73;;;11.57;;
38615;SDS011;24370;51.986;4.666;2023-04-01T04:06:46;32.80;;;12.23;;
38615;SDS011;24370;51.986;4.666;2023-04-01T04:09:12;32.17;;;12.60;;
38615;SDS011;24370;51.986;4.666;2023-04-01T04:11:38;26.27;;;11.20;;
38615;SDS011;24370;51.986;4.666;2023-04-01T04:14:03;32.03;;;12.10;;
38615;SDS011;24370;51.986;4.666;2023-04-01T04:16:29;27.83;;;10.97;;
38615;SDS011;24370;51.986;4.666;2023-04-01T04:18:54;30.30;;;10.90;;
38615;SDS011;24370;51.986;4.666;2023-04-01T04:21:20;23.63;;;9.93;;
38615;SDS011;24370;51.986;4.666;2023-04-01T04:23:45;26.57;;;11.60;;
38615;SDS011;24370;51.986;4.666;2023-04-01T04:26:11;21.30;;;9.07;;
38615;SDS011;24370;51.986;4.666;2023-04-01T04:28:38;31.60;;;11.27;;
38615;SDS011;24370;51.986;4.666;2023-04-01T04:31:04;35.33;;;12.53;;
38615;SDS011;24370;51.986;4.666;2023-04-01T04:33:31;33.97;;;13.17;;
38615;SDS011;24370;51.986;4.666;2023-04-01T04:35:57;38.93;;;12.20;;
38615;SDS011;24370;51.986;4.666;2023-04-01T04:38:23;33.40;;;12.77;;
38615;SDS011;24370;51.986;4.666;2023-04-01T04:40:50;31.00;;;10.97;;
38615;SDS011;24370;51.986;4.666;2023-04-01T04:43:15;38.53;;;13.83;;
38615;SDS011;24370;51.986;4.666;2023-04-01T04:45:42;34.47;;;14.40;;
38615;SDS011;24370;51.986;4.666;2023-04-01T04:48:08;41.13;;;14.37;;
38615;SDS011;24370;51.986;4.666;2023-04-01T04:50:34;32.63;;;12.37;;
38615;SDS011;24370;51.986;4.666;2023-04-01T04:53:00;35.10;;;13.47;;
38615;SDS011;24370;51.986;4.666;2023-04-01T04:55:25;33.67;;;14.10;;
38615;SDS011;24370;51.986;4.666;2023-04-01T04:57:51;36.23;;;14.23;;
38615;SDS011;24370;51.986;4.666;2023-04-01T05:00:16;38.10;;;13.97;;
38615;SDS011;24370;51.986;4.666;2023-04-01T05:02:42;35.27;;;15.30;;
38615;SDS011;24370;51.986;4.666;2023-04-01T05:05:08;38.17;;;14.20;;
38615;SDS011;24370;51.986;4.666;2023-04-01T05:07:33;37.70;;;14.40;;
38615;SDS011;24370;51.986;4.666;2023-04-01T05:09:59;34.70;;;14.53;;
38615;SDS011;24370;51.986;4.666;2023-04-01T05:12:25;35.17;;;15.57;;
38615;SDS011;24370;51.986;4.666;2023-04-01T05:14:50;38.13;;;16.07;;
38615;SDS011;24370;51.986;4.666;2023-04-01T05:17:16;34.13;;;15.43;;
38615;SDS011;24370;51.986;4.666;2023-04-01T05:19:41;28.07;;;13.47;;
38615;SDS011;24370;51.986;4.666;2023-04-01T05:22:07;33.90;;;14.10;;
38615;SDS011;24370;51.986;4.666;2023-04-01T05:24:32;33.23;;;15.13;;
38615;SDS011;24370;51.986;4.666;2023-04-01T05:26:58;35.50;;;14.37;;
38615;SDS011;24370;51.986;4.666;2023-04-01T05:29:24;41.43;;;15.00;;
38615;SDS011;24370;51.986;4.666;2023-04-01T05:31:50;34.77;;;14.43;;
38615;SDS011;24370;51.986;4.666;2023-04-01T05:34:16;31.53;;;13.23;;
38615;SDS011;24370;51.986;4.666;2023-04-01T05:36:41;33.93;;;14.27;;
38615;SDS011;24370;51.986;4.666;2023-04-01T05:39:07;34.63;;;14.40;;
38615;SDS011;24370;51.986;4.666;2023-04-01T05:41:37;31.33;;;14.17;;
38615;SDS011;24370;51.986;4.666;2023-04-01T05:44:04;38.13;;;14.10;;
38615;SDS011;24370;51.986;4.666;2023-04-01T05:46:30;35.00;;;13.87;;
38615;SDS011;24370;51.986;4.666;2023-04-01T05:48:56;36.80;;;13.80;;
38615;SDS011;24370;51.986;4.666;2023-04-01T05:51:22;38.97;;;14.47;;
38615;SDS011;24370;51.986;4.666;2023-04-01T05:53:47;36.83;;;14.47;;
38615;SDS011;24370;51.986;4.666;2023-04-01T05:56:13;42.87;;;15.60;;
38615;SDS011;24370;51.986;4.666;2023-04-01T05:58:38;41.23;;;16.17;;
38615;SDS011;24370;51.986;4.666;2023-04-01T06:01:05;40.77;;;14.90;;
38615;SDS011;24370;51.986;4.666;2023-04-01T06:03:32;41.37;;;14.90;;
38615;SDS011;24370;51.986;4.666;2023-04-01T06:05:57;36.07;;;12.90;;
38615;SDS011;24370;51.986;4.666;2023-04-01T06:08:24;31.77;;;13.37;;
38615;SDS011;24370;51.986;4.666;2023-04-01T06:15:47;39.13;;;14.80;;
38615;SDS011;24370;51.986;4.666;2023-04-01T06:18:34;41.37;;;14.87;;
38615;SDS011;24370;51.986;4.666;2023-04-01T06:21:45;38.67;;;14.27;;
38615;SDS011;24370;51.986;4.666;2023-04-01T06:32:14;38.97;;;14.60;;
38615;SDS011;24370;51.986;4.666;2023-04-01T06:46:11;34.57;;;15.83;;
38615;SDS011;24370;51.986;4.666;2023-04-01T06:54:51;34.07;;;17.40;;
38615;SDS011;24370;51.986;4.666;2023-04-01T06:57:38;35.77;;;16.83;;
38615;SDS011;24370;51.986;4.666;2023-04-01T07:00:14;29.47;;;13.27;;
38615;SDS011;24370;51.986;4.666;2023-04-01T07:02:50;38.00;;;17.58;;
38615;SDS011;24370;51.986;4.666;2023-04-01T07:05:23;38.27;;;18.23;;
38615;SDS011;24370;51.986;4.666;2023-04-01T07:07:53;37.57;;;18.00;;
38615;SDS011;24370;51.986;4.666;2023-04-01T07:13:16;34.37;;;15.47;;
38615;SDS011;24370;51.986;4.666;2023-04-01T07:15:56;31.43;;;14.87;;
38615;SDS011;24370;51.986;4.666;2023-04-01T07:18:58;35.83;;;16.23;;
38615;SDS011;24370;51.986;4.666;2023-04-01T07:21:30;40.27;;;17.20;;
38615;SDS011;24370;51.986;4.666;2023-04-01T07:24:11;38.33;;;16.20;;
38615;SDS011;24370;51.986;4.666;2023-04-01T07:26:43;35.53;;;16.15;;
38615;SDS011;24370;51.986;4.666;2023-04-01T07:29:12;30.00;;;15.33;;
38615;SDS011;24370;51.986;4.666;2023-04-01T07:37:39;27.87;;;13.53;;
38615;SDS011;24370;51.986;4.666;2023-04-01T07:42:54;31.20;;;15.37;;
38615;SDS011;24370;51.986;4.666;2023-04-01T07:45:27;30.87;;;13.63;;
38615;SDS011;24370;51.986;4.666;2023-04-01T07:53:19;27.67;;;13.00;;
38615;SDS011;24370;51.986;4.666;2023-04-01T07:55:54;25.27;;;12.70;;
38615;SDS011;24370;51.986;4.666;2023-04-01T07:58:31;22.03;;;11.27;;
38615;SDS011;24370;51.986;4.666;2023-04-01T08:03:38;25.67;;;11.63;;
38615;SDS011;24370;51.986;4.666;2023-04-01T08:06:18;33.17;;;12.03;;
38615;SDS011;24370;51.986;4.666;2023-04-01T08:14:36;25.70;;;11.33;;
38615;SDS011;24370;51.986;4.666;2023-04-01T08:17:23;23.33;;;10.20;;
38615;SDS011;24370;51.986;4.666;2023-04-01T08:22:53;31.87;;;11.77;;
38615;SDS011;24370;51.986;4.666;2023-04-01T08:25:26;33.20;;;12.80;;
38615;SDS011;24370;51.986;4.666;2023-04-01T08:30:23;27.87;;;10.67;;
38615;SDS011;24370;51.986;4.666;2023-04-01T08:35:40;28.80;;;12.63;;
38615;SDS011;24370;51.986;4.666;2023-04-01T08:38:13;26.03;;;10.67;;
38615;SDS011;24370;51.986;4.666;2023-04-01T08:49:00;23.33;;;10.88;;
38615;SDS011;24370;51.986;4.666;2023-04-01T08:59:40;20.60;;;9.77;;
38615;SDS011;24370;51.986;4.666;2023-04-01T09:10:40;20.80;;;9.37;;
38615;SDS011;24370;51.986;4.666;2023-04-01T09:13:48;22.47;;;9.20;;
38615;SDS011;24370;51.986;4.666;2023-04-01T09:30:03;23.33;;;8.80;;
38615;SDS011;24370;51.986;4.666;2023-04-01T09:38:42;32.10;;;11.53;;
38615;SDS011;24370;51.986;4.666;2023-04-01T09:48:00;23.07;;;8.50;;
38615;SDS011;24370;51.986;4.666;2023-04-01T09:58:46;10.77;;;5.67;;
38615;SDS011;24370;51.986;4.666;2023-04-01T10:15:22;19.13;;;7.50;;
38615;SDS011;24370;51.986;4.666;2023-04-01T10:34:56;28.73;;;10.63;;
38615;SDS011;24370;51.986;4.666;2023-04-01T10:38:05;22.20;;;10.20;;
38615;SDS011;24370;51.986;4.666;2023-04-01T10:43:56;30.03;;;10.20;;
38615;SDS011;24370;51.986;4.666;2023-04-01T11:12:26;26.10;;;10.53;;
38615;SDS011;24370;51.986;4.666;2023-04-01T11:21:22;18.43;;;6.43;;
38615;SDS011;24370;51.986;4.666;2023-04-01T11:23:53;15.63;;;7.40;;
38615;SDS011;24370;51.986;4.666;2023-04-01T11:57:03;14.07;;;7.43;;
38615;SDS011;24370;51.986;4.666;2023-04-01T12:02:24;21.30;;;8.47;;
38615;SDS011;24370;51.986;4.666;2023-04-01T12:24:47;21.67;;;9.87;;
38615;SDS011;24370;51.986;4.666;2023-04-01T12:27:29;16.27;;;8.87;;
38615;SDS011;24370;51.986;4.666;2023-04-01T13:05:36;21.67;;;9.63;;
38615;SDS011;24370;51.986;4.666;2023-04-01T13:11:09;24.13;;;10.60;;
38615;SDS011;24370;51.986;4.666;2023-04-01T13:14:05;20.57;;;9.10;;
38615;SDS011;24370;51.986;4.666;2023-04-01T13:27:38;22.63;;;9.97;;
38615;SDS011;24370;51.986;4.666;2023-04-01T13:35:17;23.53;;;9.57;;
38615;SDS011;24370;51.986;4.666;2023-04-01T13:51:04;31.27;;;9.60;;
38615;SDS011;24370;51.986;4.666;2023-04-01T14:05:50;18.40;;;7.93;;
38615;SDS011;24370;51.986;4.666;2023-04-01T14:08:28;22.27;;;8.17;;
38615;SDS011;24370;51.986;4.666;2023-04-01T14:22:33;20.67;;;7.50;;
38615;SDS011;24370;51.986;4.666;2023-04-01T14:25:26;20.23;;;8.30;;
38615;SDS011;24370;51.986;4.666;2023-04-01T14:28:59;25.37;;;8.33;;
38615;SDS011;24370;51.986;4.666;2023-04-01T14:33:46;23.37;;;8.50;;
38615;SDS011;24370;51.986;4.666;2023-04-01T14:44:32;23.83;;;7.60;;
38615;SDS011;24370;51.986;4.666;2023-04-01T14:50:24;17.03;;;8.43;;
38615;SDS011;24370;51.986;4.666;2023-04-01T14:52:58;22.53;;;9.30;;
38615;SDS011;24370;51.986;4.666;2023-04-01T14:55:44;14.93;;;7.85;;
38615;SDS011;24370;51.986;4.666;2023-04-01T14:58:15;13.70;;;5.37;;
38615;SDS011;24370;51.986;4.666;2023-04-01T15:05:45;16.07;;;7.10;;
38615;SDS011;24370;51.986;4.666;2023-04-01T15:08:20;22.03;;;7.37;;
38615;SDS011;24370;51.986;4.666;2023-04-01T15:14:01;19.10;;;6.77;;
38615;SDS011;24370;51.986;4.666;2023-04-01T15:25:00;13.80;;;6.50;;
38615;SDS011;24370;51.986;4.666;2023-04-01T15:33:44;10.73;;;6.13;;
38615;SDS011;24370;51.986;4.666;2023-04-01T15:36:29;13.30;;;7.07;;
38615;SDS011;24370;51.986;4.666;2023-04-01T15:39:10;14.93;;;7.60;;
38615;SDS011;24370;51.986;4.666;2023-04-01T15:47:12;10.70;;;6.80;;
38615;SDS011;24370;51.986;4.666;2023-04-01T15:49:56;12.53;;;6.70;;
38615;SDS011;24370;51.986;4.666;2023-04-01T15:52:23;10.23;;;6.63;;
38615;SDS011;24370;51.986;4.666;2023-04-01T15:55:12;12.67;;;7.97;;
38615;SDS011;24370;51.986;4.666;2023-04-01T16:00:29;12.27;;;8.10;;
38615;SDS011;24370;51.986;4.666;2023-04-01T16:24:41;11.97;;;8.93;;
38615;SDS011;24370;51.986;4.666;2023-04-01T16:33:20;13.03;;;7.83;;
38615;SDS011;24370;51.986;4.666;2023-04-01T16:36:12;10.47;;;7.90;;
38615;SDS011;24370;51.986;4.666;2023-04-01T16:41:20;10.63;;;7.40;;
38615;SDS011;24370;51.986;4.666;2023-04-01T16:43:51;13.37;;;8.70;;
38615;SDS011;24370;51.986;4.666;2023-04-01T16:46:28;16.20;;;8.87;;
38615;SDS011;24370;51.986;4.666;2023-04-01T16:51:46;10.93;;;6.80;;
38615;SDS011;24370;51.986;4.666;2023-04-01T16:58:03;11.23;;;7.90;;
38615;SDS011;24370;51.986;4.666;2023-04-01T17:00:22;12.37;;;7.03;;
38615;SDS011;24370;51.986;4.666;2023-04-01T17:05:34;11.17;;;8.00;;
38615;SDS011;24370;51.986;4.666;2023-04-01T17:08:48;12.20;;;7.43;;
38615;SDS011;24370;51.986;4.666;2023-04-01T17:11:06;10.27;;;7.50;;
38615;SDS011;24370;51.986;4.666;2023-04-01T17:18:59;12.57;;;6.80;;
38615;SDS011;24370;51.986;4.666;2023-04-01T17:32:45;8.77;;;6.13;;
38615;SDS011;24370;51.986;4.666;2023-04-01T17:40:57;7.23;;;4.90;;
38615;SDS011;24370;51.986;4.666;2023-04-01T17:49:12;5.87;;;4.30;;
38615;SDS011;24370;51.986;4.666;2023-04-01T18:02:57;13.03;;;9.17;;
38615;SDS011;24370;51.986;4.666;2023-04-01T18:05:40;7.87;;;7.03;;
38615;SDS011;24370;51.986;4.666;2023-04-01T18:08:12;6.73;;;5.80;;
38615;SDS011;24370;51.986;4.666;2023-04-01T18:13:21;4.80;;;4.07;;
38615;SDS011;24370;51.986;4.666;2023-04-01T18:21:51;7.35;;;4.63;;
38615;SDS011;24370;51.986;4.666;2023-04-01T18:27:03;5.20;;;4.70;;
38615;SDS011;24370;51.986;4.666;2023-04-01T18:29:44;5.30;;;4.80;;
38615;SDS011;24370;51.986;4.666;2023-04-01T18:32:31;5.73;;;4.67;;
38615;SDS011;24370;51.986;4.666;2023-04-01T18:40:38;5.40;;;3.90;;
38615;SDS011;24370;51.986;4.666;2023-04-01T18:45:45;5.33;;;4.83;;
38615;SDS011;24370;51.986;4.666;2023-04-01T18:48:37;5.10;;;4.57;;
38615;SDS011;24370;51.986;4.666;2023-04-01T18:53:55;6.63;;;5.57;;
38615;SDS011;24370;51.986;4.666;2023-04-01T18:59:12;8.30;;;6.07;;
38615;SDS011;24370;51.986;4.666;2023-04-01T19:04:42;8.47;;;6.67;;
38615;SDS011;24370;51.986;4.666;2023-04-01T19:10:15;8.77;;;7.50;;
38615;SDS011;24370;51.986;4.666;2023-04-01T19:12:54;8.87;;;7.07;;
38615;SDS011;24370;51.986;4.666;2023-04-01T19:26:30;7.50;;;6.80;;
38615;SDS011;24370;51.986;4.666;2023-04-01T19:29:26;9.80;;;7.20;;
38615;SDS011;24370;51.986;4.666;2023-04-01T19:32:37;9.00;;;7.40;;
38615;SDS011;24370;51.986;4.666;2023-04-01T19:35:10;8.97;;;7.70;;
38615;SDS011;24370;51.986;4.666;2023-04-01T19:43:10;7.60;;;6.57;;
38615;SDS011;24370;51.986;4.666;2023-04-01T19:57:06;7.90;;;7.10;;
38615;SDS011;24370;51.986;4.666;2023-04-01T19:59:41;8.13;;;5.80;;
38615;SDS011;24370;51.986;4.666;2023-04-01T20:02:33;11.73;;;6.55;;
38615;SDS011;24370;51.986;4.666;2023-04-01T20:05:03;8.80;;;5.93;;
38615;SDS011;24370;51.986;4.666;2023-04-01T20:07:47;12.13;;;7.83;;
38615;SDS011;24370;51.986;4.666;2023-04-01T20:10:22;7.70;;;6.90;;
38615;SDS011;24370;51.986;4.666;2023-04-01T20:13:13;7.90;;;6.73;;
38615;SDS011;24370;51.986;4.666;2023-04-01T20:16:08;8.13;;;6.20;;
38615;SDS011;24370;51.986;4.666;2023-04-01T20:21:06;6.13;;;4.37;;
38615;SDS011;24370;51.986;4.666;2023-04-01T20:26:31;8.40;;;6.47;;
38615;SDS011;24370;51.986;4.666;2023-04-01T20:50:31;6.20;;;5.27;;
38615;SDS011;24370;51.986;4.666;2023-04-01T20:53:51;6.78;;;5.85;;
38615;SDS011;24370;51.986;4.666;2023-04-01T20:58:42;9.03;;;6.50;;
38615;SDS011;24370;51.986;4.666;2023-04-01T21:04:04;9.70;;;6.63;;
38615;SDS011;24370;51.986;4.666;2023-04-01T21:06:56;9.27;;;6.50;;
38615;SDS011;24370;51.986;4.666;2023-04-01T21:17:46;13.70;;;7.90;;
38615;SDS011;24370;51.986;4.666;2023-04-01T21:30:59;9.43;;;6.20;;
38615;SDS011;24370;51.986;4.666;2023-04-01T21:36:52;8.63;;;6.60;;
38615;SDS011;24370;51.986;4.666;2023-04-01T21:50:39;8.20;;;5.60;;
38615;SDS011;24370;51.986;4.666;2023-04-01T21:53:25;6.57;;;5.00;;
38615;SDS011;24370;51.986;4.666;2023-04-01T22:01:30;8.27;;;5.97;;
38615;SDS011;24370;51.986;4.666;2023-04-01T22:04:11;8.13;;;6.07;;
38615;SDS011;24370;51.986;4.666;2023-04-01T22:20:50;10.27;;;6.53;;
38615;SDS011;24370;51.986;4.666;2023-04-01T22:23:31;9.67;;;6.53;;
38615;SDS011;24370;51.986;4.666;2023-04-01T22:26:05;8.45;;;5.90;;
38615;SDS011;24370;51.986;4.666;2023-04-01T22:31:27;8.67;;;6.47;;
38615;SDS011;24370;51.986;4.666;2023-04-01T22:34:12;7.93;;;6.17;;
38615;SDS011;24370;51.986;4.666;2023-04-01T22:39:42;10.60;;;6.80;;
38615;SDS011;24370;51.986;4.666;2023-04-01T22:47:45;9.00;;;6.70;;
38615;SDS011;24370;51.986;4.666;2023-04-01T22:53:21;11.20;;;7.73;;
38615;SDS011;24370;51.986;4.666;2023-04-01T22:56:03;9.03;;;6.77;;
38615;SDS011;24370;51.986;4.666;2023-04-01T22:58:41;12.07;;;7.27;;
38615;SDS011;24370;51.986;4.666;2023-04-01T23:01:13;9.63;;;6.27;;
38615;SDS011;24370;51.986;4.666;2023-04-01T23:03:44;10.50;;;7.55;;
38615;SDS011;24370;51.986;4.666;2023-04-01T23:06:18;10.90;;;7.13;;
38615;SDS011;24370;51.986;4.666;2023-04-01T23:12:09;19.10;;;7.77;;
38615;SDS011;24370;51.986;4.666;2023-04-01T23:14:48;12.50;;;7.37;;
38615;SDS011;24370;51.986;4.666;2023-04-01T23:28:53;15.87;;;7.23;;
38615;SDS011;24370;51.986;4.666;2023-04-01T23:36:40;11.27;;;7.93;;
38615;SDS011;24370;51.986;4.666;2023-04-01T23:39:13;10.47;;;7.10;;
38615;SDS011;24370;51.986;4.666;2023-04-01T23:41:42;11.10;;;8.10;;
38615;SDS011;24370;51.986;4.666;2023-04-01T23:44:09;9.53;;;6.73;;
38615;SDS011;24370;51.986;4.666;2023-04-01T23:46:37;13.97;;;7.87;;
38615;SDS011;24370;51.986;4.666;2023-04-01T23:49:06;13.43;;;7.07;;
38615;SDS011;24370;51.986;4.666;2023-04-01T23:51:46;14.60;;;7.60;;
38615;SDS011;24370;51.986;4.666;2023-04-01T23:54:23;10.10;;;6.23;;
38615;SDS011;24370;51.986;4.666;2023-04-01T23:56:59;11.37;;;7.20;;
38615;SDS011;24370;51.986;4.666;2023-04-01T23:59:36;14.43;;;6.90;;
